createdAt,value
2017-07-31T00:00:32.188Z,18.37
2017-07-31T00:01:33.425Z,18.34
2017-07-31T00:02:34.675Z,18.29
2017-07-31T00:03:35.914Z,18.46
2017-07-31T00:04:37.145Z,18.39
2017-07-31T00:05:38.385Z,18.43
2017-07-31T00:06:39.616Z,18.52
2017-07-31T00:07:40.858Z,18.44
2017-07-31T00:08:42.096Z,18.47
2017-07-31T00:09:43.337Z,18.43
2017-07-31T00:10:44.636Z,18.44
2017-07-31T00:11:45.889Z,18.55
2017-07-31T00:12:47.174Z,18.43
2017-07-31T00:13:48.423Z,18.47
2017-07-31T00:14:49.666Z,18.42
2017-07-31T00:15:50.905Z,18.39
2017-07-31T00:16:52.140Z,18.39
2017-07-31T00:17:53.369Z,18.29
2017-07-31T00:18:54.756Z,18.22
2017-07-31T00:19:56.004Z,18.29
2017-07-31T00:20:57.228Z,18.22
2017-07-31T00:21:58.463Z,18.25
2017-07-31T00:22:59.710Z,18.22
2017-07-31T00:24:01.122Z,18.25
2017-07-31T00:25:02.252Z,18.18
2017-07-31T00:26:03.481Z,18.17
2017-07-31T00:27:04.722Z,18.19
2017-07-31T00:28:05.959Z,18.13
2017-07-31T00:29:07.204Z,18.06
2017-07-31T00:30:08.443Z,18.18
2017-07-31T00:31:09.678Z,18.13
2017-07-31T00:32:10.944Z,18.13
2017-07-31T00:33:12.198Z,18.13
2017-07-31T00:34:13.442Z,18.13
2017-07-31T00:35:14.671Z,18.17
2017-07-31T00:36:15.921Z,18.1
2017-07-31T00:37:17.143Z,18.12
2017-07-31T00:38:18.378Z,18.07
2017-07-31T00:39:19.669Z,18.12
2017-07-31T00:40:20.908Z,18.06
2017-07-31T00:41:22.147Z,18.09
2017-07-31T00:42:23.390Z,18.06
2017-07-31T00:43:24.687Z,17.99
2017-07-31T00:44:25.970Z,17.94
2017-07-31T00:45:27.285Z,17.95
2017-07-31T00:46:28.534Z,17.88
2017-07-31T00:47:29.779Z,17.92
2017-07-31T00:48:31.043Z,17.92
2017-07-31T00:49:32.269Z,17.87
2017-07-31T00:50:33.617Z,17.95
2017-07-31T00:51:34.874Z,17.91
2017-07-31T00:52:36.129Z,17.94
2017-07-31T00:53:37.357Z,17.89
2017-07-31T00:54:38.608Z,17.89
2017-07-31T00:55:39.838Z,17.85
2017-07-31T00:56:41.139Z,17.92
2017-07-31T00:57:42.387Z,18.03
2017-07-31T00:58:43.625Z,17.97
2017-07-31T00:59:44.856Z,17.92
2017-07-31T01:00:46.094Z,17.89
2017-07-31T01:01:47.442Z,17.97
2017-07-31T01:02:48.688Z,18.04
2017-07-31T01:03:50.008Z,17.99
2017-07-31T01:04:51.327Z,17.91
2017-07-31T01:05:52.559Z,17.94
2017-07-31T01:06:53.793Z,17.99
2017-07-31T01:07:55.036Z,17.92
2017-07-31T01:08:56.277Z,17.85
2017-07-31T01:09:57.518Z,17.95
2017-07-31T01:10:58.755Z,17.91
2017-07-31T01:11:59.982Z,17.82
2017-07-31T01:13:01.285Z,17.88
2017-07-31T01:14:02.525Z,17.97
2017-07-31T01:15:03.760Z,17.88
2017-07-31T01:16:05.012Z,17.95
2017-07-31T01:17:06.261Z,17.91
2017-07-31T01:18:07.518Z,17.91
2017-07-31T01:19:08.765Z,17.91
2017-07-31T01:20:10.010Z,17.97
2017-07-31T01:21:11.321Z,17.91
2017-07-31T01:22:12.569Z,17.92
2017-07-31T01:23:13.801Z,17.81
2017-07-31T01:24:15.140Z,17.95
2017-07-31T01:25:16.369Z,17.82
2017-07-31T01:26:17.609Z,17.79
2017-07-31T01:27:18.858Z,17.84
2017-07-31T01:28:20.156Z,17.78
2017-07-31T01:29:21.405Z,17.81
2017-07-31T01:30:22.686Z,17.87
2017-07-31T01:31:23.926Z,17.82
2017-07-31T01:32:25.239Z,17.78
2017-07-31T01:33:26.503Z,17.82
2017-07-31T01:34:27.742Z,17.79
2017-07-31T01:35:28.988Z,17.82
2017-07-31T01:36:30.229Z,17.78
2017-07-31T01:37:31.471Z,17.79
2017-07-31T01:38:32.710Z,17.66
2017-07-31T01:39:33.950Z,17.67
2017-07-31T01:40:35.267Z,17.63
2017-07-31T01:41:36.506Z,17.57
2017-07-31T01:42:37.767Z,17.62
2017-07-31T01:43:38.986Z,17.55
2017-07-31T01:44:40.237Z,17.44
2017-07-31T01:45:41.492Z,17.5
2017-07-31T01:46:42.733Z,17.44
2017-07-31T01:47:44.065Z,17.32
2017-07-31T01:48:45.371Z,17.4
2017-07-31T01:49:46.608Z,17.26
2017-07-31T01:50:47.847Z,17.38
2017-07-31T01:51:49.177Z,17.25
2017-07-31T01:52:50.420Z,17.3
2017-07-31T01:53:51.656Z,17.23
2017-07-31T01:54:52.897Z,17.22
2017-07-31T01:55:54.138Z,17.13
2017-07-31T01:56:55.373Z,17.06
2017-07-31T01:57:56.613Z,17.15
2017-07-31T01:58:57.862Z,17.04
2017-07-31T01:59:59.137Z,17.07
2017-07-31T02:01:00.363Z,17.11
2017-07-31T02:02:01.620Z,17.06
2017-07-31T02:03:02.866Z,17.03
2017-07-31T02:04:04.090Z,17.03
2017-07-31T02:05:05.349Z,17.04
2017-07-31T02:06:06.604Z,17.03
2017-07-31T02:07:07.836Z,16.93
2017-07-31T02:08:09.215Z,16.96
2017-07-31T02:09:10.455Z,16.85
2017-07-31T02:10:11.714Z,16.85
2017-07-31T02:11:12.942Z,16.81
2017-07-31T02:12:14.187Z,16.86
2017-07-31T02:13:15.540Z,16.83
2017-07-31T02:14:16.781Z,16.81
2017-07-31T02:15:18.030Z,16.7
2017-07-31T02:16:19.265Z,16.77
2017-07-31T02:17:20.502Z,16.73
2017-07-31T02:18:21.742Z,16.65
2017-07-31T02:19:23.202Z,16.73
2017-07-31T02:20:24.584Z,16.73
2017-07-31T02:21:25.804Z,16.68
2017-07-31T02:22:27.091Z,16.59
2017-07-31T02:23:28.330Z,16.53
2017-07-31T02:24:29.569Z,16.56
2017-07-31T02:25:30.883Z,16.58
2017-07-31T02:26:32.111Z,16.44
2017-07-31T02:27:33.396Z,16.44
2017-07-31T02:28:34.634Z,16.38
2017-07-31T02:29:35.874Z,16.41
2017-07-31T02:30:37.125Z,16.34
2017-07-31T02:31:38.399Z,16.33
2017-07-31T02:32:39.709Z,16.42
2017-07-31T02:33:40.946Z,16.37
2017-07-31T02:34:42.178Z,16.38
2017-07-31T02:35:43.433Z,16.41
2017-07-31T02:36:44.673Z,16.38
2017-07-31T02:37:45.912Z,16.33
2017-07-31T02:38:47.172Z,16.3
2017-07-31T02:39:48.490Z,16.33
2017-07-31T02:40:49.723Z,16.25
2017-07-31T02:41:50.985Z,16.3
2017-07-31T02:42:52.222Z,16.27
2017-07-31T02:43:53.483Z,16.3
2017-07-31T02:44:54.730Z,16.23
2017-07-31T02:45:55.967Z,16.27
2017-07-31T02:46:57.192Z,16.18
2017-07-31T02:47:58.431Z,16.23
2017-07-31T02:48:59.678Z,16.15
2017-07-31T02:50:00.997Z,16.11
2017-07-31T02:51:02.240Z,16.12
2017-07-31T02:52:03.486Z,16.11
2017-07-31T02:53:04.750Z,16.11
2017-07-31T02:54:05.956Z,16.11
2017-07-31T02:55:07.329Z,15.96
2017-07-31T02:56:08.543Z,15.96
2017-07-31T02:57:09.790Z,15.97
2017-07-31T02:58:11.079Z,15.97
2017-07-31T02:59:12.422Z,15.96
2017-07-31T03:00:13.597Z,15.94
2017-07-31T03:01:14.829Z,15.96
2017-07-31T03:02:16.067Z,15.84
2017-07-31T03:03:17.355Z,15.85
2017-07-31T03:04:18.672Z,15.81
2017-07-31T03:05:19.926Z,15.82
2017-07-31T03:06:21.161Z,15.79
2017-07-31T03:07:22.400Z,15.86
2017-07-31T03:08:23.715Z,15.86
2017-07-31T03:09:24.967Z,15.82
2017-07-31T03:10:26.201Z,15.81
2017-07-31T03:11:27.444Z,15.84
2017-07-31T03:12:28.677Z,15.7
2017-07-31T03:13:29.922Z,15.79
2017-07-31T03:14:31.154Z,15.7
2017-07-31T03:15:32.385Z,15.76
2017-07-31T03:16:33.629Z,15.72
2017-07-31T03:17:34.932Z,15.72
2017-07-31T03:18:36.162Z,15.63
2017-07-31T03:19:37.411Z,15.68
2017-07-31T03:20:38.652Z,15.61
2017-07-31T03:21:39.889Z,15.6
2017-07-31T03:22:41.218Z,15.61
2017-07-31T03:23:42.449Z,15.67
2017-07-31T03:24:43.738Z,15.56
2017-07-31T03:25:44.973Z,15.56
2017-07-31T03:26:46.214Z,15.46
2017-07-31T03:27:47.463Z,15.49
2017-07-31T03:28:48.752Z,15.49
2017-07-31T03:29:50.093Z,15.51
2017-07-31T03:30:51.330Z,15.51
2017-07-31T03:31:52.573Z,15.38
2017-07-31T03:32:53.808Z,15.43
2017-07-31T03:33:55.061Z,15.39
2017-07-31T03:34:56.320Z,15.42
2017-07-31T03:35:57.580Z,15.38
2017-07-31T03:36:58.850Z,15.42
2017-07-31T03:38:00.087Z,15.42
2017-07-31T03:39:01.328Z,15.39
2017-07-31T03:40:02.582Z,15.39
2017-07-31T03:41:03.861Z,15.42
2017-07-31T03:42:05.274Z,15.41
2017-07-31T03:43:07.615Z,15.45
2017-07-31T03:44:08.853Z,15.45
2017-07-31T03:45:10.097Z,15.33
2017-07-31T03:46:11.331Z,15.31
2017-07-31T03:47:12.564Z,15.36
2017-07-31T03:48:13.798Z,15.41
2017-07-31T03:49:15.075Z,15.39
2017-07-31T03:50:16.318Z,15.45
2017-07-31T03:51:17.595Z,15.45
2017-07-31T03:52:18.902Z,15.39
2017-07-31T03:53:20.141Z,15.38
2017-07-31T03:54:21.405Z,15.43
2017-07-31T03:55:22.635Z,15.45
2017-07-31T03:56:23.901Z,15.45
2017-07-31T03:57:25.195Z,15.42
2017-07-31T03:58:26.428Z,15.41
2017-07-31T03:59:27.674Z,15.43
2017-07-31T04:00:28.909Z,15.39
2017-07-31T04:01:30.149Z,15.41
2017-07-31T04:02:31.394Z,15.43
2017-07-31T04:03:32.653Z,15.41
2017-07-31T04:04:34.052Z,15.39
2017-07-31T04:05:35.334Z,15.36
2017-07-31T04:06:36.550Z,15.46
2017-07-31T04:07:37.809Z,15.41
2017-07-31T04:08:39.134Z,15.38
2017-07-31T04:09:40.394Z,15.46
2017-07-31T04:10:41.614Z,15.51
2017-07-31T04:11:42.896Z,15.57
2017-07-31T04:12:44.140Z,15.57
2017-07-31T04:13:45.408Z,15.51
2017-07-31T04:14:46.638Z,15.57
2017-07-31T04:15:47.885Z,15.63
2017-07-31T04:16:49.201Z,15.63
2017-07-31T04:17:50.373Z,15.74
2017-07-31T04:18:51.641Z,15.74
2017-07-31T04:19:52.881Z,15.7
2017-07-31T04:20:54.118Z,15.76
2017-07-31T04:21:55.365Z,15.85
2017-07-31T04:22:56.624Z,15.89
2017-07-31T04:23:57.932Z,15.84
2017-07-31T04:24:59.199Z,15.94
2017-07-31T04:26:00.486Z,15.96
2017-07-31T04:27:01.724Z,15.93
2017-07-31T04:28:02.982Z,15.94
2017-07-31T04:29:04.231Z,16
2017-07-31T04:30:05.575Z,15.97
2017-07-31T04:31:06.812Z,16.11
2017-07-31T04:32:08.050Z,16.12
2017-07-31T04:33:09.324Z,16.14
2017-07-31T04:34:10.558Z,16.18
2017-07-31T04:35:11.807Z,16.23
2017-07-31T04:36:13.116Z,16.16
2017-07-31T04:37:14.368Z,16.23
2017-07-31T04:38:15.585Z,16.27
2017-07-31T04:39:16.825Z,16.34
2017-07-31T04:40:18.061Z,16.41
2017-07-31T04:41:19.412Z,16.41
2017-07-31T04:42:20.649Z,16.49
2017-07-31T04:43:21.928Z,16.55
2017-07-31T04:44:23.196Z,16.53
2017-07-31T04:45:24.437Z,16.58
2017-07-31T04:46:25.728Z,16.63
2017-07-31T04:47:26.997Z,16.71
2017-07-31T04:48:28.316Z,16.75
2017-07-31T04:49:29.545Z,16.74
2017-07-31T04:50:30.784Z,16.73
2017-07-31T04:51:32.021Z,16.85
2017-07-31T04:52:33.262Z,16.88
2017-07-31T04:53:34.506Z,16.9
2017-07-31T04:54:35.750Z,16.99
2017-07-31T04:55:37.093Z,17.08
2017-07-31T04:56:38.336Z,17.03
2017-07-31T04:57:39.577Z,17.17
2017-07-31T04:58:40.892Z,17.14
2017-07-31T04:59:42.099Z,17.23
2017-07-31T05:00:43.375Z,17.25
2017-07-31T05:01:44.640Z,17.35
2017-07-31T05:02:45.854Z,17.47
2017-07-31T05:03:47.102Z,17.62
2017-07-31T05:04:48.359Z,17.91
2017-07-31T05:05:49.695Z,18.15
2017-07-31T05:06:50.915Z,18.24
2017-07-31T05:07:52.155Z,18.37
2017-07-31T05:08:53.393Z,18.37
2017-07-31T05:09:54.629Z,18.47
2017-07-31T05:10:55.865Z,18.58
2017-07-31T05:11:57.166Z,18.7
2017-07-31T05:12:58.421Z,18.84
2017-07-31T05:13:59.718Z,19.14
2017-07-31T05:15:00.957Z,19.54
2017-07-31T05:16:02.201Z,19.94
2017-07-31T05:17:03.527Z,20.51
2017-07-31T05:18:04.729Z,21.26
2017-07-31T05:19:06.017Z,21.85
2017-07-31T05:20:07.300Z,22.46
2017-07-31T05:21:08.513Z,23.01
2017-07-31T05:22:09.767Z,23.68
2017-07-31T05:23:10.998Z,24.05
2017-07-31T05:24:12.236Z,24.29
2017-07-31T05:25:13.487Z,24.49
2017-07-31T05:26:14.782Z,24.38
2017-07-31T05:27:16.024Z,24.41
2017-07-31T05:28:17.352Z,24.45
2017-07-31T05:29:18.599Z,24.53
2017-07-31T05:30:19.840Z,24.83
2017-07-31T05:31:21.141Z,25.02
2017-07-31T05:32:22.380Z,25.28
2017-07-31T05:33:23.670Z,25.39
2017-07-31T05:34:24.929Z,25.53
2017-07-31T05:35:26.181Z,25.71
2017-07-31T05:36:27.426Z,25.89
2017-07-31T05:37:28.669Z,26.39
2017-07-31T05:38:30.015Z,26.42
2017-07-31T05:39:31.343Z,26.86
2017-07-31T05:40:32.556Z,27.11
2017-07-31T05:41:33.800Z,27.02
2017-07-31T05:42:35.041Z,27.29
2017-07-31T05:43:36.287Z,27.64
2017-07-31T05:44:37.540Z,28.09
2017-07-31T05:45:38.873Z,28.35
2017-07-31T05:46:40.129Z,28.5
2017-07-31T05:47:41.394Z,28.4
2017-07-31T05:48:42.636Z,28.13
2017-07-31T05:49:43.879Z,27.99
2017-07-31T05:50:45.150Z,27.95
2017-07-31T05:51:46.387Z,28.03
2017-07-31T05:52:47.722Z,28.23
2017-07-31T05:53:48.954Z,28.6
2017-07-31T05:54:50.193Z,29.01
2017-07-31T05:55:51.446Z,29.2
2017-07-31T05:56:52.687Z,29.1
2017-07-31T05:57:53.940Z,29.23
2017-07-31T05:58:55.190Z,29.26
2017-07-31T05:59:56.430Z,29.5
2017-07-31T06:00:57.679Z,29.59
2017-07-31T06:01:58.916Z,30.05
2017-07-31T06:03:00.159Z,30.47
2017-07-31T06:04:01.409Z,30.76
2017-07-31T06:05:02.745Z,31.13
2017-07-31T06:06:04.001Z,31.33
2017-07-31T06:07:05.253Z,31.65
2017-07-31T06:08:06.498Z,31.85
2017-07-31T06:09:07.744Z,31.64
2017-07-31T06:10:08.986Z,31.64
2017-07-31T06:11:10.287Z,31.75
2017-07-31T06:12:11.548Z,32.02
2017-07-31T06:13:12.835Z,31.87
2017-07-31T06:14:14.082Z,31.91
2017-07-31T06:15:15.465Z,31.93
2017-07-31T06:16:16.724Z,31.6
2017-07-31T06:17:17.969Z,31.55
2017-07-31T06:18:19.234Z,31.98
2017-07-31T06:19:20.572Z,32.25
2017-07-31T06:20:21.736Z,32.62
2017-07-31T06:21:22.963Z,33.04
2017-07-31T06:22:24.208Z,33.42
2017-07-31T06:23:25.463Z,33.73
2017-07-31T06:24:26.702Z,33.97
2017-07-31T06:25:27.991Z,33.78
2017-07-31T06:26:29.256Z,33.51
2017-07-31T06:27:30.501Z,32.84
2017-07-31T06:28:31.770Z,32.74
2017-07-31T06:29:33.097Z,32.59
2017-07-31T06:30:34.378Z,32.98
2017-07-31T06:31:35.635Z,33.17
2017-07-31T06:32:36.899Z,33.43
2017-07-31T06:33:38.135Z,32.4
2017-07-31T06:34:39.424Z,32.69
2017-07-31T06:35:40.726Z,33.26
2017-07-31T06:36:41.970Z,33.7
2017-07-31T06:37:43.319Z,33.94
2017-07-31T06:38:44.562Z,34.27
2017-07-31T06:39:45.806Z,34.46
2017-07-31T06:40:47.063Z,34.58
2017-07-31T06:41:48.306Z,35.01
2017-07-31T06:42:49.675Z,35.21
2017-07-31T06:43:50.945Z,35.47
2017-07-31T06:44:52.186Z,35.63
2017-07-31T06:45:53.416Z,35.66
2017-07-31T06:46:54.662Z,35.74
2017-07-31T06:47:55.912Z,35.77
2017-07-31T06:48:57.259Z,35.69
2017-07-31T06:49:58.482Z,35.62
2017-07-31T06:50:59.729Z,35.44
2017-07-31T06:52:00.978Z,35.33
2017-07-31T06:53:02.247Z,34.84
2017-07-31T06:54:03.556Z,35.1
2017-07-31T06:55:04.805Z,35.14
2017-07-31T06:56:06.106Z,35.13
2017-07-31T06:57:07.355Z,35.35
2017-07-31T06:58:08.606Z,35.76
2017-07-31T06:59:09.855Z,35.7
2017-07-31T07:00:11.142Z,35.73
2017-07-31T07:01:12.393Z,36
2017-07-31T07:02:13.666Z,36.12
2017-07-31T07:03:14.919Z,36.27
2017-07-31T07:04:16.173Z,35.93
2017-07-31T07:05:17.426Z,35.64
2017-07-31T07:06:18.667Z,35.15
2017-07-31T07:07:19.947Z,34.92
2017-07-31T07:08:21.235Z,35.08
2017-07-31T07:09:22.495Z,35.26
2017-07-31T07:10:23.732Z,35.45
2017-07-31T07:11:24.982Z,35.95
2017-07-31T07:12:26.231Z,36.27
2017-07-31T07:13:27.489Z,36.7
2017-07-31T07:14:28.803Z,37.2
2017-07-31T07:15:30.089Z,37.48
2017-07-31T07:16:31.397Z,37.85
2017-07-31T07:17:32.657Z,38.08
2017-07-31T07:18:33.949Z,38.04
2017-07-31T07:19:35.255Z,37.92
2017-07-31T07:20:36.503Z,37.62
2017-07-31T07:21:37.838Z,37.17
2017-07-31T07:22:39.086Z,37.05
2017-07-31T07:23:40.341Z,36.51
2017-07-31T07:24:41.588Z,35.81
2017-07-31T07:25:42.906Z,36.21
2017-07-31T07:26:44.185Z,35.92
2017-07-31T07:27:45.488Z,35.81
2017-07-31T07:28:46.733Z,35.99
2017-07-31T07:29:47.971Z,36.17
2017-07-31T07:30:49.241Z,35.88
2017-07-31T07:31:50.556Z,35.69
2017-07-31T07:32:51.812Z,36.27
2017-07-31T07:33:53.072Z,36.52
2017-07-31T07:34:54.329Z,36.38
2017-07-31T07:35:55.653Z,36.3
2017-07-31T07:36:56.907Z,36.24
2017-07-31T07:37:58.188Z,35.77
2017-07-31T07:38:59.556Z,34.88
2017-07-31T07:40:00.812Z,34.72
2017-07-31T07:41:02.081Z,34.29
2017-07-31T07:42:03.338Z,34.6
2017-07-31T07:43:04.591Z,34.7
2017-07-31T07:44:05.851Z,35.07
2017-07-31T07:45:07.090Z,35.73
2017-07-31T07:46:08.339Z,36.54
2017-07-31T07:47:09.696Z,37.31
2017-07-31T07:48:10.958Z,37.71
2017-07-31T07:49:12.205Z,38.18
2017-07-31T07:50:13.515Z,38.6
2017-07-31T07:51:14.898Z,37.5
2017-07-31T07:52:16.106Z,36.82
2017-07-31T07:53:17.428Z,36.38
2017-07-31T07:54:18.679Z,37.04
2017-07-31T07:55:20.009Z,36.8
2017-07-31T07:56:21.259Z,37.1
2017-07-31T07:57:22.508Z,37.36
2017-07-31T07:58:23.773Z,38.29
2017-07-31T07:59:25.008Z,38.61
2017-07-31T08:00:26.255Z,39.47
2017-07-31T08:01:27.541Z,40.21
2017-07-31T08:02:28.861Z,40.57
2017-07-31T08:03:30.109Z,40.68
2017-07-31T08:04:31.415Z,40.49
2017-07-31T08:05:32.673Z,39.9
2017-07-31T08:06:33.969Z,38.17
2017-07-31T08:07:35.245Z,37.33
2017-07-31T08:08:36.509Z,36.91
2017-07-31T08:09:37.742Z,36.42
2017-07-31T08:10:38.993Z,36.72
2017-07-31T08:11:40.241Z,36.56
2017-07-31T08:12:41.520Z,36.94
2017-07-31T08:13:42.751Z,37.48
2017-07-31T08:14:44.081Z,37.7
2017-07-31T08:15:45.335Z,37.67
2017-07-31T08:16:46.599Z,37.62
2017-07-31T08:17:47.848Z,37.77
2017-07-31T08:18:49.168Z,38.26
2017-07-31T08:19:50.415Z,37.7
2017-07-31T08:20:51.673Z,37.26
2017-07-31T08:21:52.970Z,36.46
2017-07-31T08:22:54.206Z,35.84
2017-07-31T08:23:55.454Z,36.04
2017-07-31T08:24:56.715Z,35.76
2017-07-31T08:25:57.962Z,35.77
2017-07-31T08:26:59.297Z,35.91
2017-07-31T08:28:00.481Z,36
2017-07-31T08:29:01.783Z,36.3
2017-07-31T08:30:03.034Z,36.68
2017-07-31T08:31:04.277Z,36.64
2017-07-31T08:32:05.597Z,36.21
2017-07-31T08:33:06.856Z,36.15
2017-07-31T08:34:08.123Z,36.2
2017-07-31T08:35:09.420Z,36.43
2017-07-31T08:36:10.670Z,36.65
2017-07-31T08:37:11.918Z,36.42
2017-07-31T08:38:13.264Z,36.86
2017-07-31T08:39:14.520Z,37.32
2017-07-31T08:40:15.769Z,37.38
2017-07-31T08:41:17.025Z,37.19
2017-07-31T08:42:18.271Z,37.29
2017-07-31T08:43:19.535Z,36.7
2017-07-31T08:44:20.785Z,36.48
2017-07-31T08:45:22.090Z,36.58
2017-07-31T08:46:23.391Z,36.54
2017-07-31T08:47:24.663Z,36.92
2017-07-31T08:48:25.906Z,36.87
2017-07-31T08:49:27.164Z,36.41
2017-07-31T08:50:28.444Z,34.84
2017-07-31T08:51:29.666Z,34.96
2017-07-31T08:52:30.917Z,35.74
2017-07-31T08:53:32.162Z,36.03
2017-07-31T08:54:33.439Z,36.43
2017-07-31T08:55:34.691Z,36.99
2017-07-31T08:56:35.938Z,37.41
2017-07-31T08:57:37.197Z,37.48
2017-07-31T08:58:38.498Z,37.74
2017-07-31T08:59:39.758Z,37.89
2017-07-31T09:00:41.008Z,37.41
2017-07-31T09:01:42.257Z,36.8
2017-07-31T09:02:43.514Z,36.73
2017-07-31T09:03:44.763Z,36.87
2017-07-31T09:04:46.020Z,37.12
2017-07-31T09:05:47.331Z,37.56
2017-07-31T09:06:48.585Z,38.07
2017-07-31T09:07:49.838Z,38.49
2017-07-31T09:08:51.088Z,38.92
2017-07-31T09:09:52.334Z,39.65
2017-07-31T09:10:53.586Z,40.11
2017-07-31T09:11:54.902Z,40.11
2017-07-31T09:12:56.131Z,39.88
2017-07-31T09:13:57.390Z,40.56
2017-07-31T09:14:58.648Z,40.93
2017-07-31T09:15:59.967Z,41.09
2017-07-31T09:17:01.192Z,41.08
2017-07-31T09:18:02.447Z,40.96
2017-07-31T09:19:03.820Z,40.36
2017-07-31T09:20:05.104Z,40.56
2017-07-31T09:21:06.344Z,40.26
2017-07-31T09:22:07.599Z,40.5
2017-07-31T09:23:08.861Z,40.61
2017-07-31T09:24:10.203Z,40.59
2017-07-31T09:25:11.520Z,39.95
2017-07-31T09:26:12.773Z,39.55
2017-07-31T09:27:14.034Z,39.47
2017-07-31T09:28:15.377Z,40.02
2017-07-31T09:29:16.639Z,40.47
2017-07-31T09:30:17.904Z,41.13
2017-07-31T09:31:19.136Z,41.55
2017-07-31T09:32:20.392Z,41.97
2017-07-31T09:33:21.673Z,42.39
2017-07-31T09:34:23.000Z,42.47
2017-07-31T09:35:24.409Z,42.81
2017-07-31T09:36:25.832Z,43.41
2017-07-31T09:37:27.077Z,43.8
2017-07-31T09:38:28.339Z,43.99
2017-07-31T09:39:29.679Z,43.49
2017-07-31T09:40:30.952Z,43.82
2017-07-31T09:41:32.189Z,43.27
2017-07-31T09:42:33.447Z,42.05
2017-07-31T09:43:34.708Z,42.22
2017-07-31T09:44:35.954Z,41.59
2017-07-31T09:45:37.219Z,41.5
2017-07-31T09:46:38.535Z,40.9
2017-07-31T09:47:39.815Z,40.4
2017-07-31T09:48:41.066Z,40.69
2017-07-31T09:49:42.334Z,39.93
2017-07-31T09:50:43.598Z,40.38
2017-07-31T09:51:44.853Z,40.93
2017-07-31T09:52:46.114Z,41.33
2017-07-31T09:53:47.401Z,41.4
2017-07-31T09:54:48.675Z,41.77
2017-07-31T09:55:49.912Z,42
2017-07-31T09:56:51.162Z,42.44
2017-07-31T09:57:52.431Z,42.46
2017-07-31T09:58:53.689Z,42.5
2017-07-31T09:59:55.102Z,42.91
2017-07-31T10:00:56.320Z,42.84
2017-07-31T10:01:57.583Z,43.13
2017-07-31T10:02:58.840Z,43.16
2017-07-31T10:04:00.099Z,42.37
2017-07-31T10:05:01.463Z,40.71
2017-07-31T10:06:02.695Z,40.59
2017-07-31T10:07:03.961Z,39.7
2017-07-31T10:08:05.211Z,38.98
2017-07-31T10:09:06.470Z,38.29
2017-07-31T10:10:07.750Z,37.62
2017-07-31T10:11:09.004Z,37.23
2017-07-31T10:12:10.259Z,36.98
2017-07-31T10:13:11.526Z,37.28
2017-07-31T10:14:12.774Z,37.66
2017-07-31T10:15:14.023Z,37.99
2017-07-31T10:16:15.325Z,38.12
2017-07-31T10:17:16.579Z,38.11
2017-07-31T10:18:17.841Z,38.24
2017-07-31T10:19:19.211Z,38.33
2017-07-31T10:20:20.454Z,38.71
2017-07-31T10:21:21.763Z,39.2
2017-07-31T10:22:23.067Z,39.61
2017-07-31T10:23:24.317Z,39.69
2017-07-31T10:24:25.572Z,40
2017-07-31T10:25:26.877Z,40.32
2017-07-31T10:26:28.092Z,40.69
2017-07-31T10:27:29.349Z,41.06
2017-07-31T10:28:30.596Z,41.09
2017-07-31T10:29:31.857Z,41.1
2017-07-31T10:30:33.232Z,41.12
2017-07-31T10:31:34.487Z,41.08
2017-07-31T10:32:35.736Z,41.13
2017-07-31T10:33:36.988Z,41.03
2017-07-31T10:34:38.246Z,39.93
2017-07-31T10:35:39.582Z,39.09
2017-07-31T10:36:40.829Z,38.32
2017-07-31T10:37:42.083Z,37.99
2017-07-31T10:38:43.332Z,37.42
2017-07-31T10:39:44.581Z,36.58
2017-07-31T10:40:45.838Z,36.51
2017-07-31T10:41:47.157Z,36
2017-07-31T10:42:48.422Z,35.42
2017-07-31T10:43:49.666Z,35.26
2017-07-31T10:44:50.914Z,35.21
2017-07-31T10:45:52.163Z,35.18
2017-07-31T10:46:53.437Z,34.99
2017-07-31T10:47:54.703Z,34.6
2017-07-31T10:48:56.066Z,34.14
2017-07-31T10:49:57.299Z,33.76
2017-07-31T10:50:58.569Z,33.26
2017-07-31T10:51:59.807Z,32.93
2017-07-31T10:53:01.055Z,32.27
2017-07-31T10:54:02.307Z,31.85
2017-07-31T10:55:03.552Z,31.75
2017-07-31T10:56:04.878Z,31.72
2017-07-31T10:57:06.063Z,31.64
2017-07-31T10:58:07.318Z,31.24
2017-07-31T10:59:08.564Z,31.2
2017-07-31T11:00:09.872Z,31.11
2017-07-31T11:01:11.239Z,30.83
2017-07-31T11:02:12.483Z,30.68
2017-07-31T11:03:13.729Z,30.59
2017-07-31T11:04:14.982Z,30.5
2017-07-31T11:05:16.233Z,30.81
2017-07-31T11:06:17.482Z,30.74
2017-07-31T11:07:18.829Z,30.74
2017-07-31T11:08:20.140Z,30.36
2017-07-31T11:09:21.391Z,30.14
2017-07-31T11:10:22.638Z,29.86
2017-07-31T11:11:23.931Z,29.72
2017-07-31T11:12:25.212Z,29.38
2017-07-31T11:13:26.527Z,29.38
2017-07-31T11:14:27.774Z,29.5
2017-07-31T11:15:29.015Z,29.41
2017-07-31T11:16:30.246Z,29.49
2017-07-31T11:17:31.491Z,29.4
2017-07-31T11:18:32.742Z,29.31
2017-07-31T11:19:34.019Z,29.18
2017-07-31T11:20:35.300Z,29.18
2017-07-31T11:21:36.885Z,29.11
2017-07-31T11:22:38.020Z,29.04
2017-07-31T11:23:39.267Z,29
2017-07-31T11:24:40.518Z,28.93
2017-07-31T11:25:41.820Z,28.85
2017-07-31T11:26:43.078Z,28.72
2017-07-31T11:27:44.307Z,28.65
2017-07-31T11:28:45.568Z,28.51
2017-07-31T11:29:46.818Z,28.5
2017-07-31T11:30:48.169Z,28.47
2017-07-31T11:31:49.448Z,28.41
2017-07-31T11:32:50.692Z,28.43
2017-07-31T11:33:51.934Z,28.46
2017-07-31T11:34:53.184Z,28.38
2017-07-31T11:35:54.436Z,28.4
2017-07-31T11:36:55.755Z,28.36
2017-07-31T11:37:57.039Z,28.32
2017-07-31T11:38:58.275Z,28.46
2017-07-31T11:39:59.533Z,28.51
2017-07-31T11:41:00.770Z,28.59
2017-07-31T11:42:02.021Z,28.56
2017-07-31T11:43:03.281Z,28.65
2017-07-31T11:44:04.518Z,28.82
2017-07-31T11:45:05.825Z,28.8
2017-07-31T11:46:07.082Z,28.9
2017-07-31T11:47:08.344Z,29.08
2017-07-31T11:48:09.656Z,29.06
2017-07-31T11:49:10.904Z,29.06
2017-07-31T11:50:12.173Z,29.08
2017-07-31T11:51:13.425Z,29.16
2017-07-31T11:52:14.692Z,29.08
2017-07-31T11:53:15.921Z,28.84
2017-07-31T11:54:17.165Z,28.77
2017-07-31T11:55:18.407Z,28.75
2017-07-31T11:56:19.662Z,28.72
2017-07-31T11:57:20.995Z,28.73
2017-07-31T11:58:22.235Z,28.56
2017-07-31T11:59:23.485Z,28.73
2017-07-31T12:00:24.732Z,28.77
2017-07-31T12:01:26.029Z,28.93
2017-07-31T12:02:27.278Z,29.1
2017-07-31T12:03:28.599Z,29.08
2017-07-31T12:04:29.879Z,28.97
2017-07-31T12:05:31.106Z,29.11
2017-07-31T12:06:32.379Z,29.1
2017-07-31T12:07:33.646Z,28.93
2017-07-31T12:08:34.884Z,28.8
2017-07-31T12:09:36.120Z,28.51
2017-07-31T12:10:37.373Z,28.56
2017-07-31T12:11:38.652Z,28.66
2017-07-31T12:12:39.891Z,28.75
2017-07-31T12:13:41.135Z,28.91
2017-07-31T12:14:42.385Z,28.72
2017-07-31T12:15:43.684Z,28.48
2017-07-31T12:16:44.954Z,28.32
2017-07-31T12:17:46.203Z,28.25
2017-07-31T12:18:47.427Z,28.17
2017-07-31T12:19:48.666Z,28.16
2017-07-31T12:20:49.904Z,28.38
2017-07-31T12:21:51.160Z,28.43
2017-07-31T12:22:52.412Z,28.56
2017-07-31T12:23:53.654Z,28.53
2017-07-31T12:24:54.901Z,28.59
2017-07-31T12:25:56.146Z,28.58
2017-07-31T12:26:57.443Z,28.46
2017-07-31T12:27:58.694Z,28.23
2017-07-31T12:28:59.974Z,28.11
2017-07-31T12:30:01.212Z,27.96
2017-07-31T12:31:02.455Z,27.86
2017-07-31T12:32:03.705Z,27.76
2017-07-31T12:33:04.949Z,27.71
2017-07-31T12:34:06.392Z,27.67
2017-07-31T12:35:07.641Z,27.61
2017-07-31T12:36:08.956Z,27.46
2017-07-31T12:37:10.196Z,27.16
2017-07-31T12:38:11.446Z,27.11
2017-07-31T12:39:12.693Z,27.05
2017-07-31T12:40:13.971Z,27.11
2017-07-31T12:41:15.371Z,27.04
2017-07-31T12:42:16.632Z,27.2
2017-07-31T12:43:17.894Z,27.23
2017-07-31T12:44:19.138Z,27.24
2017-07-31T12:45:20.398Z,27.24
2017-07-31T12:46:21.643Z,27.21
2017-07-31T12:47:22.974Z,27.05
2017-07-31T12:48:24.215Z,27.04
2017-07-31T12:49:25.508Z,27.04
2017-07-31T12:50:26.753Z,27.02
2017-07-31T12:51:28.050Z,26.94
2017-07-31T12:52:29.333Z,27.05
2017-07-31T12:53:30.568Z,27.04
2017-07-31T12:54:31.926Z,27.09
2017-07-31T12:55:33.181Z,26.95
2017-07-31T12:56:34.425Z,26.87
2017-07-31T12:57:35.659Z,26.99
2017-07-31T12:58:36.985Z,26.96
2017-07-31T12:59:38.334Z,27.02
2017-07-31T13:00:39.609Z,27.11
2017-07-31T13:01:40.866Z,27.21
2017-07-31T13:02:42.094Z,27.23
2017-07-31T13:03:43.430Z,27.23
2017-07-31T13:04:44.811Z,27.39
2017-07-31T13:05:46.036Z,27.36
2017-07-31T13:06:47.275Z,27.35
2017-07-31T13:07:48.523Z,27.35
2017-07-31T13:08:49.772Z,27.28
2017-07-31T13:09:51.036Z,27.05
2017-07-31T13:10:52.280Z,26.91
2017-07-31T13:11:53.555Z,26.79